»·PEaware :: N399SL KSMX-KBFL

N399SL :: KSMX-KBFL

FLIGHT INFORMATION

Flight Status: Arrived
Operator: Privately registered:
United States
More flights under this callsign
Pilot: Prakash S. (35213)
Aircraft: CESSNA 172 SKYHAWK
(C172)
More flights by this aircraft type
Origin: KSMX Santa Maria Pub/Capt Hancock
United States
Destination: KBFL Meadows
United States
More flights between these airports :: More routes between these airports
Route:
File this flight plan on PilotEdge
Remarks:
Altitude:
(Current/Filed)
7,500ft
Speed:
(Current/Filed)
100kts
Departed: 10-Sep-21 02:47 PM
Arrived: 10-Sep-21 03:38 PM
Distance/Time
Traveled:
76nm/0:51
Distance/Time
To Go:
Arrived

Flight Plot

Page will automatically refresh every two minutes.


Map Options




Map Legend


Flown Route
Filed Route
Departure Airport
Arrival Airport
Navaid (VOR, NDB)
Fix

Horizontal Profiles

Position Reports

Time Latitude Longitude Heading Altitude Ground
Speed
10-Sep-21 14:25 34.895846 -120.445232 314 265ft 0kts
10-Sep-21 14:32 34.895846 -120.445232 314 265ft 0kts
10-Sep-21 14:33 34.895846 -120.445232 314 265ft 0kts
10-Sep-21 14:34 34.895846 -120.445232 314 265ft 0kts
10-Sep-21 14:35 34.895846 -120.445232 314 265ft 0kts
10-Sep-21 14:36 34.895846 -120.445232 314 265ft 0kts
10-Sep-21 14:37 34.895846 -120.445232 314 265ft 0kts
10-Sep-21 14:38 34.895846 -120.445232 314 265ft 0kts
10-Sep-21 14:39 34.895846 -120.445232 314 265ft 0kts
10-Sep-21 14:40 34.895869 -120.445743 296 265ft 7kts
10-Sep-21 14:41 34.896253 -120.447535 135 265ft 6kts
10-Sep-21 14:42 34.895000 -120.445994 136 265ft 7kts
10-Sep-21 14:43 34.893896 -120.445649 181 265ft 0kts
10-Sep-21 14:44 34.893896 -120.445649 181 265ft 0kts
10-Sep-21 14:45 34.893233 -120.446597 332 265ft 9kts
10-Sep-21 14:46 34.904021 -120.457768 318 773ft 76kts
10-Sep-21 14:47 34.920481 -120.468908 54 1790ft 78kts
10-Sep-21 14:48 34.928162 -120.444920 83 2767ft 76kts
10-Sep-21 14:49 34.930017 -120.418721 87 3640ft 79kts
10-Sep-21 14:50 34.933223 -120.392435 76 4497ft 78kts
10-Sep-21 14:51 34.939185 -120.366931 62 5285ft 78kts
10-Sep-21 14:52 34.949350 -120.342917 62 6015ft 81kts
10-Sep-21 14:53 34.959656 -120.318554 62 6715ft 81kts
10-Sep-21 14:54 34.970075 -120.293886 62 7369ft 82kts
10-Sep-21 14:55 34.981007 -120.266185 65 7537ft 125kts
10-Sep-21 14:56 34.993802 -120.229368 68 7474ft 106kts
10-Sep-21 14:57 35.005871 -120.197354 65 7464ft 102kts
10-Sep-21 14:58 35.017967 -120.165644 65 7465ft 106kts
10-Sep-21 14:59 35.030767 -120.132035 65 7464ft 110kts
10-Sep-21 15:00 35.043750 -120.097878 65 7464ft 111kts
10-Sep-21 15:01 35.055490 -120.063008 69 7469ft 111kts
10-Sep-21 15:02 35.066545 -120.027756 67 7473ft 111kts
10-Sep-21 15:03 35.077625 -119.993189 66 7584ft 105kts
10-Sep-21 15:04 35.088747 -119.959348 68 7613ft 111kts
10-Sep-21 15:05 35.101228 -119.923693 67 7513ft 116kts
10-Sep-21 15:06 35.113652 -119.887365 67 7446ft 112kts
10-Sep-21 15:07 35.125605 -119.853661 67 7539ft 107kts
10-Sep-21 15:08 35.138410 -119.820917 64 7604ft 106kts
10-Sep-21 15:09 35.152318 -119.787841 58 7624ft 106kts
10-Sep-21 15:10 35.165226 -119.754266 58 7607ft 109kts
10-Sep-21 15:11 35.178268 -119.720286 64 7591ft 111kts
10-Sep-21 15:12 35.191481 -119.685357 65 7507ft 113kts
10-Sep-21 15:13 35.204017 -119.650895 65 7543ft 110kts
10-Sep-21 15:14 35.216747 -119.616998 72 7544ft 110kts
10-Sep-21 15:15 35.224472 -119.580652 76 7555ft 110kts
10-Sep-21 15:16 35.229065 -119.543878 69 7557ft 110kts
10-Sep-21 15:17 35.238105 -119.509154 73 7465ft 102kts
10-Sep-21 15:18 35.246516 -119.476644 61 7424ft 96kts
10-Sep-21 15:19 35.261391 -119.450107 50 7074ft 98kts
10-Sep-21 15:20 35.282314 -119.426896 41 6370ft 101kts
10-Sep-21 15:21 35.297110 -119.398075 66 5673ft 101kts
10-Sep-21 15:22 35.306922 -119.366668 71 5397ft 98kts
10-Sep-21 15:23 35.316114 -119.336601 63 5546ft 96kts
10-Sep-21 15:24 35.328163 -119.303751 64 5493ft 108kts
10-Sep-21 15:25 35.344725 -119.273412 49 5526ft 107kts
10-Sep-21 15:26 35.360406 -119.240049 69 4868ft 122kts
10-Sep-21 15:27 35.372450 -119.201513 68 4093ft 120kts
10-Sep-21 15:28 35.384791 -119.164878 70 3554ft 101kts
10-Sep-21 15:29 35.392713 -119.132416 76 3427ft 99kts
10-Sep-21 15:30 35.402941 -119.101690 43 3084ft 99kts
10-Sep-21 15:31 35.418602 -119.080866 94 2608ft 80kts
10-Sep-21 15:32 35.405624 -119.061011 131 1910ft 74kts
10-Sep-21 15:33 35.391912 -119.042576 130 1336ft 72kts
10-Sep-21 15:34 35.397051 -119.020880 54 1197ft 69kts
10-Sep-21 15:35 35.409563 -119.026970 311 1082ft 63kts
10-Sep-21 15:36 35.422381 -119.042392 314 786ft 65kts
10-Sep-21 15:37 35.433930 -119.056298 317 487ft 33kts
10-Sep-21 15:38 35.437291 -119.060313 314 491ft 11kts
10-Sep-21 15:39 35.439296 -119.062698 314 495ft 6kts
10-Sep-21 15:41 35.440553 -119.063021 44 498ft 0kts
10-Sep-21 15:42 35.440598 -119.062968 42 498ft 0kts
10-Sep-21 15:43 35.440818 -119.062356 124 499ft 2kts
10-Sep-21 15:44 35.437882 -119.058786 132 497ft 10kts

Navigation Log

Ident Type
Flight plan parsing failed, navigation log unavailable